F/V Manathia — FGSL — position and weather

sailwx.info

Track history (hours):
 
Tides and Currents Weather Stations Pressure Air Temp Water Temp Dewpoint Dewpoint Depression Visibility Wind Speed Wind Dir Waves Ship Positions

F/V Manathia

Last reported at 2017-Jan-19 22:14 UTC. Time now 2017-Jan-20 18:04 UTC.
Position N 47°45' W 004°60'.

Length 16 m.

Type: Fishing. MMSI: 228258000.

Date/timePositionNaut miles runAvg speedWind from/ knotsBaromVisibWave heightAir tempDewpointWater temp
2017-Jan-19 22:14N 47°45' W 004°60'2 2.6
2017-Jan-19 21:33N 47°45' W 004°57'1 0.7
2017-Jan-19 19:31N 47°45' W 004°59'27 0.7
2017-Jan-18 03:33N 47°46' W 004°20'10 0.3
2017-Jan-16 12:17N 47°48' W 004°35'7 1.5
2017-Jan-16 07:26N 47°49' W 004°46'  
2017-Jan-12 03:11N 47°31' W 004°33'2 3.3
2017-Jan-12 02:33N 47°29' W 004°34'3 3.3
2017-Jan-12 01:33N 47°27' W 004°38'2 1.9
2017-Jan-12 00:30N 47°25' W 004°40'3 2.7
2017-Jan-11 23:33N 47°27' W 004°38'3 2.5
2017-Jan-11 22:33N 47°25' W 004°37'3 3.5
2017-Jan-11 21:33N 47°22' W 004°40'4 3.1
2017-Jan-11 20:18N 47°21' W 004°45'3 2.7
2017-Jan-11 19:12N 47°21' W 004°50'1 2.0
2017-Jan-11 18:30N 47°20' W 004°50'2 2.4
2017-Jan-11 17:32N 47°18' W 004°51'2 2.0
2017-Jan-11 16:33N 47°19' W 004°53'3 3.4
2017-Jan-11 15:33N 47°22' W 004°50'3 3.0
2017-Jan-11 14:31N 47°24' W 004°47'3 2.9
2017-Jan-11 13:33N 47°25' W 004°43'2 1.4
2017-Jan-11 12:31N 47°26' W 004°44'16 3.1
2017-Jan-11 07:26N 47°31' W 005°06'5 1.6
2017-Jan-11 04:24N 47°29' W 004°59'5 0.5
2017-Jan-10 18:32N 47°30' W 005°07'  
Track history (hours):
 
Tides and Currents Weather Stations Pressure Air Temp Water Temp Dewpoint Dewpoint Depression Visibility Wind Speed Wind Dir Waves Ship Positions

F/V Manathia

Last reported at 2017-Jan-19 22:14 UTC. Time now 2017-Jan-20 18:04 UTC.
Position N 47°45' W 004°60'.

Length 16 m.

Type: Fishing. MMSI: 228258000.

Date/timePositionNaut miles runAvg speedWind from/ knotsBaromVisibWave heightAir tempDewpointWater temp
2017-Jan-19 22:14N 47°45' W 004°60'2 2.6
2017-Jan-19 21:33N 47°45' W 004°57'1 0.7
2017-Jan-19 19:31N 47°45' W 004°59'27 0.7
2017-Jan-18 03:33N 47°46' W 004°20'10 0.3
2017-Jan-16 12:17N 47°48' W 004°35'7 1.5
2017-Jan-16 07:26N 47°49' W 004°46'  
2017-Jan-12 03:11N 47°31' W 004°33'2 3.3
2017-Jan-12 02:33N 47°29' W 004°34'3 3.3
2017-Jan-12 01:33N 47°27' W 004°38'2 1.9
2017-Jan-12 00:30N 47°25' W 004°40'3 2.7
2017-Jan-11 23:33N 47°27' W 004°38'3 2.5
2017-Jan-11 22:33N 47°25' W 004°37'3 3.5
2017-Jan-11 21:33N 47°22' W 004°40'4 3.1
2017-Jan-11 20:18N 47°21' W 004°45'3 2.7
2017-Jan-11 19:12N 47°21' W 004°50'1 2.0
2017-Jan-11 18:30N 47°20' W 004°50'2 2.4
2017-Jan-11 17:32N 47°18' W 004°51'2 2.0
2017-Jan-11 16:33N 47°19' W 004°53'3 3.4
2017-Jan-11 15:33N 47°22' W 004°50'3 3.0
2017-Jan-11 14:31N 47°24' W 004°47'3 2.9
2017-Jan-11 13:33N 47°25' W 004°43'2 1.4
2017-Jan-11 12:31N 47°26' W 004°44'16 3.1
2017-Jan-11 07:26N 47°31' W 005°06'5 1.6
2017-Jan-11 04:24N 47°29' W 004°59'5 0.5
2017-Jan-10 18:32N 47°30' W 005°07'  

Dump ship's entire track history